sensor_id;sensor_type;location;lat;lon;timestamp;pressure;altitude;pressure_sealevel;temperature;humidity
50867;BME280;36839;51.946;21.002;2023-01-29T00:00:38;100998.38;;;-2.14;100.00
50867;BME280;36839;51.946;21.002;2023-01-29T00:03:24;101000.65;;;-2.15;100.00
50867;BME280;36839;51.946;21.002;2023-01-29T00:05:51;100997.70;;;-2.15;100.00
50867;BME280;36839;51.946;21.002;2023-01-29T00:08:19;101004.83;;;-2.19;100.00
50867;BME280;36839;51.946;21.002;2023-01-29T00:10:49;101000.90;;;-2.21;100.00
50867;BME280;36839;51.946;21.002;2023-01-29T00:13:16;100998.94;;;-2.19;100.00
50867;BME280;36839;51.946;21.002;2023-01-29T00:15:54;100994.05;;;-2.24;100.00
50867;BME280;36839;51.946;21.002;2023-01-29T00:18:29;100994.19;;;-2.25;100.00
50867;BME280;36839;51.946;21.002;2023-01-29T00:20:56;100982.71;;;-2.24;100.00
50867;BME280;36839;51.946;21.002;2023-01-29T00:23:25;100974.36;;;-2.25;100.00
50867;BME280;36839;51.946;21.002;2023-01-29T00:25:58;100966.98;;;-2.26;100.00
50867;BME280;36839;51.946;21.002;2023-01-29T00:28:33;100967.67;;;-2.25;100.00
50867;BME280;36839;51.946;21.002;2023-01-29T00:31:19;100965.40;;;-2.26;100.00
50867;BME280;36839;51.946;21.002;2023-01-29T00:33:49;100958.05;;;-2.26;100.00
50867;BME280;36839;51.946;21.002;2023-01-29T00:36:18;100957.11;;;-2.24;100.00
50867;BME280;36839;51.946;21.002;2023-01-29T00:38:46;100956.77;;;-2.23;100.00
50867;BME280;36839;51.946;21.002;2023-01-29T00:41:26;100952.98;;;-2.25;100.00
50867;BME280;36839;51.946;21.002;2023-01-29T00:44:15;100958.08;;;-2.29;100.00
50867;BME280;36839;51.946;21.002;2023-01-29T00:47:02;100950.73;;;-2.27;100.00
50867;BME280;36839;51.946;21.002;2023-01-29T00:49:30;100951.16;;;-2.28;100.00
50867;BME280;36839;51.946;21.002;2023-01-29T00:51:58;100952.63;;;-2.30;100.00
50867;BME280;36839;51.946;21.002;2023-01-29T00:54:43;100951.25;;;-2.31;100.00
50867;BME280;36839;51.946;21.002;2023-01-29T00:57:11;100946.92;;;-2.32;100.00
50867;BME280;36839;51.946;21.002;2023-01-29T00:59:38;100951.42;;;-2.32;100.00
50867;BME280;36839;51.946;21.002;2023-01-29T01:02:10;100954.05;;;-2.32;100.00
50867;BME280;36839;51.946;21.002;2023-01-29T01:04:56;100951.90;;;-2.33;100.00
50867;BME280;36839;51.946;21.002;2023-01-29T01:07:24;100955.48;;;-2.38;100.00
50867;BME280;36839;51.946;21.002;2023-01-29T01:09:51;100951.48;;;-2.39;100.00
50867;BME280;36839;51.946;21.002;2023-01-29T01:12:36;100944.69;;;-2.41;100.00
50867;BME280;36839;51.946;21.002;2023-01-29T01:15:04;100943.01;;;-2.46;100.00
50867;BME280;36839;51.946;21.002;2023-01-29T01:17:34;100941.11;;;-2.45;100.00
50867;BME280;36839;51.946;21.002;2023-01-29T01:20:06;100934.19;;;-2.44;100.00
50867;BME280;36839;51.946;21.002;2023-01-29T01:22:41;100924.73;;;-2.48;100.00
50867;BME280;36839;51.946;21.002;2023-01-29T01:25:20;100918.07;;;-2.48;100.00
50867;BME280;36839;51.946;21.002;2023-01-29T01:27:55;100917.76;;;-2.47;100.00
50867;BME280;36839;51.946;21.002;2023-01-29T01:30:22;100914.71;;;-2.45;100.00
50867;BME280;36839;51.946;21.002;2023-01-29T01:32:52;100910.36;;;-2.47;100.00
50867;BME280;36839;51.946;21.002;2023-01-29T01:35:18;100904.95;;;-2.49;100.00
50867;BME280;36839;51.946;21.002;2023-01-29T01:37:46;100910.41;;;-2.51;100.00
50867;BME280;36839;51.946;21.002;2023-01-29T01:40:15;100909.59;;;-2.50;100.00
50867;BME280;36839;51.946;21.002;2023-01-29T01:42:52;100907.42;;;-2.50;100.00
50867;BME280;36839;51.946;21.002;2023-01-29T01:45:29;100907.19;;;-2.49;100.00
50867;BME280;36839;51.946;21.002;2023-01-29T01:47:58;100906.07;;;-2.47;100.00
50867;BME280;36839;51.946;21.002;2023-01-29T01:50:42;100907.56;;;-2.46;100.00
50867;BME280;36839;51.946;21.002;2023-01-29T01:53:14;100904.98;;;-2.44;100.00
50867;BME280;36839;51.946;21.002;2023-01-29T01:55:51;100905.88;;;-2.42;100.00
50867;BME280;36839;51.946;21.002;2023-01-29T01:58:26;100900.99;;;-2.41;100.00
50867;BME280;36839;51.946;21.002;2023-01-29T02:00:58;100899.01;;;-2.41;100.00
50867;BME280;36839;51.946;21.002;2023-01-29T02:03:26;100900.09;;;-2.41;100.00
50867;BME280;36839;51.946;21.002;2023-01-29T02:06:14;100898.55;;;-2.43;100.00
50867;BME280;36839;51.946;21.002;2023-01-29T02:09:12;100897.39;;;-2.41;100.00
50867;BME280;36839;51.946;21.002;2023-01-29T02:12:03;100900.20;;;-2.37;100.00
50867;BME280;36839;51.946;21.002;2023-01-29T02:14:35;100903.49;;;-2.39;100.00
50867;BME280;36839;51.946;21.002;2023-01-29T02:17:12;100904.83;;;-2.43;100.00
50867;BME280;36839;51.946;21.002;2023-01-29T02:22:45;100908.15;;;-2.45;100.00
50867;BME280;36839;51.946;21.002;2023-01-29T02:33:24;100901.20;;;-2.48;100.00
50867;BME280;36839;51.946;21.002;2023-01-29T02:38:54;100899.73;;;-2.50;100.00
50867;BME280;36839;51.946;21.002;2023-01-29T02:41:46;100905.80;;;-2.48;100.00
50867;BME280;36839;51.946;21.002;2023-01-29T02:47:04;100898.09;;;-2.49;100.00
50867;BME280;36839;51.946;21.002;2023-01-29T02:56:07;100891.45;;;-2.55;100.00
50867;BME280;36839;51.946;21.002;2023-01-29T02:58:40;100892.75;;;-2.56;100.00
50867;BME280;36839;51.946;21.002;2023-01-29T03:01:29;100893.20;;;-2.55;100.00
50867;BME280;36839;51.946;21.002;2023-01-29T03:04:03;100886.05;;;-2.57;100.00
50867;BME280;36839;51.946;21.002;2023-01-29T03:06:42;100882.64;;;-2.57;100.00
50867;BME280;36839;51.946;21.002;2023-01-29T03:09:18;100884.13;;;-2.58;100.00
50867;BME280;36839;51.946;21.002;2023-01-29T03:11:53;100881.87;;;-2.59;100.00
50867;BME280;36839;51.946;21.002;2023-01-29T03:14:34;100887.91;;;-2.58;100.00
50867;BME280;36839;51.946;21.002;2023-01-29T03:17:25;100882.48;;;-2.59;100.00
50867;BME280;36839;51.946;21.002;2023-01-29T03:20:03;100880.98;;;-2.59;100.00
50867;BME280;36839;51.946;21.002;2023-01-29T03:22:38;100871.49;;;-2.58;100.00
50867;BME280;36839;51.946;21.002;2023-01-29T03:25:07;100862.52;;;-2.56;100.00
50867;BME280;36839;51.946;21.002;2023-01-29T03:28:16;100859.09;;;-2.56;100.00
50867;BME280;36839;51.946;21.002;2023-01-29T03:31:05;100857.84;;;-2.56;100.00
50867;BME280;36839;51.946;21.002;2023-01-29T03:34:01;100855.80;;;-2.57;100.00
50867;BME280;36839;51.946;21.002;2023-01-29T03:36:56;100855.70;;;-2.60;100.00
50867;BME280;36839;51.946;21.002;2023-01-29T03:39:26;100853.95;;;-2.61;100.00
50867;BME280;36839;51.946;21.002;2023-01-29T03:47:47;100850.60;;;-2.59;100.00
50867;BME280;36839;51.946;21.002;2023-01-29T03:50:31;100858.02;;;-2.58;100.00
50867;BME280;36839;51.946;21.002;2023-01-29T03:53:14;100857.21;;;-2.57;100.00
50867;BME280;36839;51.946;21.002;2023-01-29T04:01:53;100863.89;;;-2.55;100.00
50867;BME280;36839;51.946;21.002;2023-01-29T04:04:44;100861.61;;;-2.56;100.00
50867;BME280;36839;51.946;21.002;2023-01-29T04:07:12;100856.16;;;-2.56;100.00
50867;BME280;36839;51.946;21.002;2023-01-29T04:09:47;100857.95;;;-2.55;100.00
50867;BME280;36839;51.946;21.002;2023-01-29T04:12:19;100861.27;;;-2.54;100.00
50867;BME280;36839;51.946;21.002;2023-01-29T04:14:49;100857.41;;;-2.54;100.00
50867;BME280;36839;51.946;21.002;2023-01-29T04:17:28;100857.09;;;-2.53;100.00
50867;BME280;36839;51.946;21.002;2023-01-29T04:19:59;100848.58;;;-2.52;100.00
50867;BME280;36839;51.946;21.002;2023-01-29T04:22:37;100848.79;;;-2.52;100.00
50867;BME280;36839;51.946;21.002;2023-01-29T04:25:28;100843.70;;;-2.54;100.00
50867;BME280;36839;51.946;21.002;2023-01-29T04:28:39;100839.98;;;-2.53;100.00
50867;BME280;36839;51.946;21.002;2023-01-29T04:31:09;100842.19;;;-2.52;100.00
50867;BME280;36839;51.946;21.002;2023-01-29T04:34:01;100840.42;;;-2.50;100.00
50867;BME280;36839;51.946;21.002;2023-01-29T04:36:48;100829.88;;;-2.51;100.00
50867;BME280;36839;51.946;21.002;2023-01-29T04:42:18;100818.52;;;-2.51;100.00
50867;BME280;36839;51.946;21.002;2023-01-29T04:45:00;100824.52;;;-2.50;100.00
50867;BME280;36839;51.946;21.002;2023-01-29T04:51:16;100827.64;;;-2.47;100.00
50867;BME280;36839;51.946;21.002;2023-01-29T04:54:08;100822.52;;;-2.47;100.00
50867;BME280;36839;51.946;21.002;2023-01-29T04:59:34;100817.75;;;-2.46;100.00
50867;BME280;36839;51.946;21.002;2023-01-29T05:02:08;100820.50;;;-2.43;100.00
50867;BME280;36839;51.946;21.002;2023-01-29T05:04:40;100816.59;;;-2.42;100.00
50867;BME280;36839;51.946;21.002;2023-01-29T05:07:13;100815.50;;;-2.42;100.00
50867;BME280;36839;51.946;21.002;2023-01-29T05:09:44;100813.11;;;-2.43;100.00
50867;BME280;36839;51.946;21.002;2023-01-29T05:12:14;100807.52;;;-2.43;100.00
50867;BME280;36839;51.946;21.002;2023-01-29T05:15:02;100809.35;;;-2.43;100.00
50867;BME280;36839;51.946;21.002;2023-01-29T05:17:39;100809.31;;;-2.43;100.00
50867;BME280;36839;51.946;21.002;2023-01-29T05:20:12;100807.08;;;-2.41;100.00
50867;BME280;36839;51.946;21.002;2023-01-29T05:22:41;100809.48;;;-2.42;100.00
50867;BME280;36839;51.946;21.002;2023-01-29T05:25:23;100816.58;;;-2.42;100.00
50867;BME280;36839;51.946;21.002;2023-01-29T05:27:52;100819.02;;;-2.41;100.00
50867;BME280;36839;51.946;21.002;2023-01-29T05:30:45;100821.44;;;-2.39;100.00
50867;BME280;36839;51.946;21.002;2023-01-29T05:33:16;100817.30;;;-2.38;100.00
50867;BME280;36839;51.946;21.002;2023-01-29T05:35:44;100817.08;;;-2.37;100.00
50867;BME280;36839;51.946;21.002;2023-01-29T05:38:13;100811.53;;;-2.36;100.00
50867;BME280;36839;51.946;21.002;2023-01-29T05:40:51;100809.34;;;-2.35;100.00
50867;BME280;36839;51.946;21.002;2023-01-29T05:43:28;100804.64;;;-2.36;100.00
50867;BME280;36839;51.946;21.002;2023-01-29T05:45:59;100796.70;;;-2.35;100.00
50867;BME280;36839;51.946;21.002;2023-01-29T05:48:28;100798.08;;;-2.35;100.00
50867;BME280;36839;51.946;21.002;2023-01-29T05:50:59;100796.95;;;-2.35;100.00
50867;BME280;36839;51.946;21.002;2023-01-29T05:53:29;100791.20;;;-2.33;100.00
50867;BME280;36839;51.946;21.002;2023-01-29T05:56:00;100790.94;;;-2.34;100.00
50867;BME280;36839;51.946;21.002;2023-01-29T05:58:30;100786.27;;;-2.32;100.00
50867;BME280;36839;51.946;21.002;2023-01-29T06:01:32;100786.83;;;-2.31;100.00
50867;BME280;36839;51.946;21.002;2023-01-29T06:04:07;100786.42;;;-2.31;100.00
50867;BME280;36839;51.946;21.002;2023-01-29T06:06:34;100792.02;;;-2.29;100.00
50867;BME280;36839;51.946;21.002;2023-01-29T06:09:02;100793.92;;;-2.27;100.00
50867;BME280;36839;51.946;21.002;2023-01-29T06:11:29;100798.05;;;-2.25;100.00
50867;BME280;36839;51.946;21.002;2023-01-29T06:13:57;100790.21;;;-2.25;100.00
50867;BME280;36839;51.946;21.002;2023-01-29T06:16:24;100789.05;;;-2.27;100.00
50867;BME280;36839;51.946;21.002;2023-01-29T06:18:52;100790.02;;;-2.25;100.00
50867;BME280;36839;51.946;21.002;2023-01-29T06:21:23;100799.00;;;-2.25;100.00
50867;BME280;36839;51.946;21.002;2023-01-29T06:23:52;100804.27;;;-2.24;100.00
50867;BME280;36839;51.946;21.002;2023-01-29T06:26:24;100808.80;;;-2.23;100.00
50867;BME280;36839;51.946;21.002;2023-01-29T06:28:50;100805.44;;;-2.22;100.00
50867;BME280;36839;51.946;21.002;2023-01-29T06:31:18;100805.69;;;-2.22;100.00
50867;BME280;36839;51.946;21.002;2023-01-29T06:33:44;100799.56;;;-2.22;100.00
50867;BME280;36839;51.946;21.002;2023-01-29T06:36:14;100797.76;;;-2.21;100.00
50867;BME280;36839;51.946;21.002;2023-01-29T06:38:44;100803.70;;;-2.19;100.00
50867;BME280;36839;51.946;21.002;2023-01-29T06:41:12;100808.86;;;-2.17;100.00
50867;BME280;36839;51.946;21.002;2023-01-29T06:43:47;100807.80;;;-2.16;100.00
50867;BME280;36839;51.946;21.002;2023-01-29T06:46:15;100813.54;;;-2.12;100.00
50867;BME280;36839;51.946;21.002;2023-01-29T06:48:43;100811.29;;;-2.10;100.00
50867;BME280;36839;51.946;21.002;2023-01-29T06:51:10;100808.24;;;-2.10;100.00
50867;BME280;36839;51.946;21.002;2023-01-29T06:53:39;100807.30;;;-2.10;100.00
50867;BME280;36839;51.946;21.002;2023-01-29T06:56:07;100803.37;;;-2.08;100.00
50867;BME280;36839;51.946;21.002;2023-01-29T06:58:37;100803.73;;;-2.05;100.00
50867;BME280;36839;51.946;21.002;2023-01-29T07:01:09;100811.63;;;-2.05;100.00
50867;BME280;36839;51.946;21.002;2023-01-29T07:03:38;100815.84;;;-2.04;100.00
50867;BME280;36839;51.946;21.002;2023-01-29T07:06:15;100809.50;;;-2.01;100.00
50867;BME280;36839;51.946;21.002;2023-01-29T07:08:42;100809.10;;;-1.98;100.00
50867;BME280;36839;51.946;21.002;2023-01-29T07:11:09;100815.46;;;-1.99;100.00
50867;BME280;36839;51.946;21.002;2023-01-29T07:13:37;100816.61;;;-1.98;100.00
50867;BME280;36839;51.946;21.002;2023-01-29T07:16:05;100816.14;;;-1.97;100.00
50867;BME280;36839;51.946;21.002;2023-01-29T07:18:37;100813.26;;;-1.95;100.00
50867;BME280;36839;51.946;21.002;2023-01-29T07:21:06;100804.27;;;-1.94;100.00
50867;BME280;36839;51.946;21.002;2023-01-29T07:23:38;100796.44;;;-1.92;100.00
50867;BME280;36839;51.946;21.002;2023-01-29T07:26:06;100788.46;;;-1.88;100.00
50867;BME280;36839;51.946;21.002;2023-01-29T07:28:39;100782.60;;;-1.88;100.00
50867;BME280;36839;51.946;21.002;2023-01-29T07:31:11;100782.16;;;-1.87;100.00
50867;BME280;36839;51.946;21.002;2023-01-29T07:33:42;100782.09;;;-1.88;100.00
50867;BME280;36839;51.946;21.002;2023-01-29T07:36:12;100790.27;;;-1.83;100.00
50867;BME280;36839;51.946;21.002;2023-01-29T07:38:40;100790.05;;;-1.82;100.00
50867;BME280;36839;51.946;21.002;2023-01-29T07:41:09;100792.52;;;-1.75;100.00
50867;BME280;36839;51.946;21.002;2023-01-29T07:43:48;100786.52;;;-1.75;100.00
50867;BME280;36839;51.946;21.002;2023-01-29T07:46:19;100787.81;;;-1.75;100.00
50867;BME280;36839;51.946;21.002;2023-01-29T07:48:47;100795.80;;;-1.74;100.00
50867;BME280;36839;51.946;21.002;2023-01-29T07:51:16;100797.31;;;-1.73;100.00
50867;BME280;36839;51.946;21.002;2023-01-29T07:53:46;100797.70;;;-1.76;100.00
50867;BME280;36839;51.946;21.002;2023-01-29T07:56:15;100801.94;;;-1.76;100.00
50867;BME280;36839;51.946;21.002;2023-01-29T07:58:42;100804.99;;;-1.69;100.00
50867;BME280;36839;51.946;21.002;2023-01-29T08:01:08;100806.40;;;-1.67;100.00
50867;BME280;36839;51.946;21.002;2023-01-29T08:03:36;100808.08;;;-1.64;100.00
50867;BME280;36839;51.946;21.002;2023-01-29T08:06:04;100802.34;;;-1.60;100.00
50867;BME280;36839;51.946;21.002;2023-01-29T08:08:35;100799.13;;;-1.56;100.00
50867;BME280;36839;51.946;21.002;2023-01-29T08:11:03;100797.20;;;-1.50;100.00
50867;BME280;36839;51.946;21.002;2023-01-29T08:13:33;100784.95;;;-1.46;100.00
50867;BME280;36839;51.946;21.002;2023-01-29T08:16:02;100779.91;;;-1.43;100.00
50867;BME280;36839;51.946;21.002;2023-01-29T08:18:30;100773.81;;;-1.40;100.00
50867;BME280;36839;51.946;21.002;2023-01-29T08:21:00;100781.20;;;-1.39;100.00
50867;BME280;36839;51.946;21.002;2023-01-29T08:23:29;100781.97;;;-1.38;100.00
50867;BME280;36839;51.946;21.002;2023-01-29T08:25:55;100784.98;;;-1.38;100.00
50867;BME280;36839;51.946;21.002;2023-01-29T08:28:22;100788.75;;;-1.39;100.00
50867;BME280;36839;51.946;21.002;2023-01-29T08:30:50;100778.15;;;-1.40;100.00
50867;BME280;36839;51.946;21.002;2023-01-29T08:33:17;100771.36;;;-1.37;100.00
50867;BME280;36839;51.946;21.002;2023-01-29T08:35:48;100764.55;;;-1.35;100.00
50867;BME280;36839;51.946;21.002;2023-01-29T08:38:15;100760.30;;;-1.34;100.00
50867;BME280;36839;51.946;21.002;2023-01-29T08:40:42;100764.92;;;-1.38;100.00
50867;BME280;36839;51.946;21.002;2023-01-29T08:43:13;100771.05;;;-1.38;100.00
50867;BME280;36839;51.946;21.002;2023-01-29T08:45:42;100768.52;;;-1.35;100.00
50867;BME280;36839;51.946;21.002;2023-01-29T08:48:10;100770.77;;;-1.31;100.00
50867;BME280;36839;51.946;21.002;2023-01-29T08:50:37;100765.63;;;-1.30;100.00
50867;BME280;36839;51.946;21.002;2023-01-29T08:53:06;100765.16;;;-1.28;100.00
50867;BME280;36839;51.946;21.002;2023-01-29T08:55:38;100762.77;;;-1.24;100.00
50867;BME280;36839;51.946;21.002;2023-01-29T08:58:08;100766.92;;;-1.19;100.00
50867;BME280;36839;51.946;21.002;2023-01-29T09:00:36;100766.98;;;-1.18;100.00
50867;BME280;36839;51.946;21.002;2023-01-29T09:03:03;100759.58;;;-1.19;100.00
50867;BME280;36839;51.946;21.002;2023-01-29T09:05:30;100761.76;;;-1.21;100.00
50867;BME280;36839;51.946;21.002;2023-01-29T09:07:59;100758.67;;;-1.26;100.00
50867;BME280;36839;51.946;21.002;2023-01-29T09:10:28;100760.86;;;-1.28;100.00
50867;BME280;36839;51.946;21.002;2023-01-29T09:13:03;100755.88;;;-1.25;100.00
50867;BME280;36839;51.946;21.002;2023-01-29T09:15:32;100760.62;;;-1.22;100.00
50867;BME280;36839;51.946;21.002;2023-01-29T09:18:03;100752.44;;;-1.17;100.00
50867;BME280;36839;51.946;21.002;2023-01-29T09:20:36;100750.25;;;-1.10;100.00
50867;BME280;36839;51.946;21.002;2023-01-29T09:23:06;100744.05;;;-1.04;100.00
50867;BME280;36839;51.946;21.002;2023-01-29T09:25:37;100738.88;;;-1.01;100.00
50867;BME280;36839;51.946;21.002;2023-01-29T09:28:04;100732.92;;;-0.97;100.00
50867;BME280;36839;51.946;21.002;2023-01-29T09:30:32;100723.96;;;-0.93;100.00
50867;BME280;36839;51.946;21.002;2023-01-29T09:32:59;100716.11;;;-0.85;100.00
50867;BME280;36839;51.946;21.002;2023-01-29T09:35:31;100705.35;;;-0.76;100.00
50867;BME280;36839;51.946;21.002;2023-01-29T09:37:59;100696.16;;;-0.72;100.00
50867;BME280;36839;51.946;21.002;2023-01-29T09:40:40;100686.88;;;-0.68;100.00
50867;BME280;36839;51.946;21.002;2023-01-29T09:44:02;100686.03;;;-0.66;100.00
50867;BME280;36839;51.946;21.002;2023-01-29T09:48:59;100684.47;;;-0.80;100.00
50867;BME280;36839;51.946;21.002;2023-01-29T09:51:31;100684.55;;;-0.81;100.00
50867;BME280;36839;51.946;21.002;2023-01-29T09:56:45;100678.24;;;-0.62;100.00
50867;BME280;36839;51.946;21.002;2023-01-29T09:59:13;100672.95;;;-0.59;100.00
50867;BME280;36839;51.946;21.002;2023-01-29T10:05:31;100665.64;;;-0.43;100.00
50867;BME280;36839;51.946;21.002;2023-01-29T10:14:13;100659.11;;;-0.39;100.00
50867;BME280;36839;51.946;21.002;2023-01-29T10:19:34;100656.80;;;-0.27;100.00
50867;BME280;36839;51.946;21.002;2023-01-29T10:24:59;100659.27;;;-0.08;100.00
50867;BME280;36839;51.946;21.002;2023-01-29T10:27:38;100651.56;;;0.02;100.00
50867;BME280;36839;51.946;21.002;2023-01-29T10:30:20;100643.48;;;0.10;100.00
50867;BME280;36839;51.946;21.002;2023-01-29T10:32:54;100642.32;;;0.01;100.00
50867;BME280;36839;51.946;21.002;2023-01-29T10:35:39;100645.73;;;-0.01;100.00
50867;BME280;36839;51.946;21.002;2023-01-29T10:38:47;100646.11;;;-0.07;100.00
50867;BME280;36839;51.946;21.002;2023-01-29T10:56:14;100633.16;;;-0.03;100.00
50867;BME280;36839;51.946;21.002;2023-01-29T10:58:50;100629.42;;;-0.05;100.00
50867;BME280;36839;51.946;21.002;2023-01-29T11:01:17;100625.95;;;-0.02;100.00
50867;BME280;36839;51.946;21.002;2023-01-29T11:03:43;100623.20;;;0.01;100.00
50867;BME280;36839;51.946;21.002;2023-01-29T11:06:22;100619.98;;;0.01;100.00
50867;BME280;36839;51.946;21.002;2023-01-29T11:09:07;100620.47;;;0.04;100.00
50867;BME280;36839;51.946;21.002;2023-01-29T11:14:27;100607.14;;;0.08;100.00
50867;BME280;36839;51.946;21.002;2023-01-29T11:16:58;100607.44;;;0.09;100.00
50867;BME280;36839;51.946;21.002;2023-01-29T11:19:46;100600.80;;;0.10;100.00
50867;BME280;36839;51.946;21.002;2023-01-29T11:22:34;100600.66;;;0.12;100.00
50867;BME280;36839;51.946;21.002;2023-01-29T11:25:16;100596.52;;;0.11;100.00
50867;BME280;36839;51.946;21.002;2023-01-29T11:30:37;100599.84;;;0.13;100.00
50867;BME280;36839;51.946;21.002;2023-01-29T11:33:23;100589.98;;;0.23;100.00
50867;BME280;36839;51.946;21.002;2023-01-29T11:35:49;100585.71;;;0.30;100.00
50867;BME280;36839;51.946;21.002;2023-01-29T11:38:29;100584.57;;;0.42;100.00
50867;BME280;36839;51.946;21.002;2023-01-29T11:41:09;100577.62;;;0.55;100.00
50867;BME280;36839;51.946;21.002;2023-01-29T11:43:42;100569.04;;;0.65;100.00
50867;BME280;36839;51.946;21.002;2023-01-29T11:46:14;100568.03;;;0.65;100.00
50867;BME280;36839;51.946;21.002;2023-01-29T11:48:49;100560.08;;;0.63;100.00
50867;BME280;36839;51.946;21.002;2023-01-29T11:51:28;100555.36;;;0.65;100.00
50867;BME280;36839;51.946;21.002;2023-01-29T11:53:58;100544.52;;;0.65;100.00
50867;BME280;36839;51.946;21.002;2023-01-29T11:58:59;100535.96;;;0.59;100.00
50867;BME280;36839;51.946;21.002;2023-01-29T12:01:38;100536.23;;;0.51;100.00
50867;BME280;36839;51.946;21.002;2023-01-29T12:04:18;100536.66;;;0.40;100.00
50867;BME280;36839;51.946;21.002;2023-01-29T12:06:49;100537.80;;;0.38;100.00
50867;BME280;36839;51.946;21.002;2023-01-29T12:09:22;100539.48;;;0.38;100.00
50867;BME280;36839;51.946;21.002;2023-01-29T12:11:50;100539.00;;;0.27;100.00
50867;BME280;36839;51.946;21.002;2023-01-29T12:14:29;100535.76;;;0.20;100.00
50867;BME280;36839;51.946;21.002;2023-01-29T12:17:19;100529.24;;;0.16;100.00
50867;BME280;36839;51.946;21.002;2023-01-29T12:19:53;100525.63;;;0.04;100.00
50867;BME280;36839;51.946;21.002;2023-01-29T12:26:01;100510.00;;;-0.13;100.00
50867;BME280;36839;51.946;21.002;2023-01-29T12:28:43;100510.79;;;-0.19;100.00
50867;BME280;36839;51.946;21.002;2023-01-29T12:34:36;100500.21;;;-0.19;100.00
50867;BME280;36839;51.946;21.002;2023-01-29T12:37:18;100495.77;;;-0.32;100.00
50867;BME280;36839;51.946;21.002;2023-01-29T12:39:48;100495.84;;;-0.35;100.00
50867;BME280;36839;51.946;21.002;2023-01-29T12:42:24;100493.48;;;-0.36;100.00
50867;BME280;36839;51.946;21.002;2023-01-29T12:45:03;100491.72;;;-0.38;100.00
50867;BME280;36839;51.946;21.002;2023-01-29T12:47:42;100483.60;;;-0.35;100.00
50867;BME280;36839;51.946;21.002;2023-01-29T12:50:28;100482.48;;;-0.32;100.00
50867;BME280;36839;51.946;21.002;2023-01-29T12:55:55;100481.88;;;-0.23;100.00
50867;BME280;36839;51.946;21.002;2023-01-29T12:58:31;100478.52;;;-0.26;100.00
50867;BME280;36839;51.946;21.002;2023-01-29T13:01:11;100471.54;;;-0.27;100.00
50867;BME280;36839;51.946;21.002;2023-01-29T13:06:53;100466.59;;;-0.25;100.00
50867;BME280;36839;51.946;21.002;2023-01-29T13:09:27;100462.00;;;-0.21;100.00
50867;BME280;36839;51.946;21.002;2023-01-29T13:12:06;100466.93;;;-0.22;100.00
50867;BME280;36839;51.946;21.002;2023-01-29T13:14:56;100463.05;;;-0.28;100.00
50867;BME280;36839;51.946;21.002;2023-01-29T13:17:45;100462.21;;;-0.31;100.00
50867;BME280;36839;51.946;21.002;2023-01-29T13:20:29;100461.85;;;-0.27;100.00
50867;BME280;36839;51.946;21.002;2023-01-29T13:23:03;100465.60;;;-0.23;100.00
50867;BME280;36839;51.946;21.002;2023-01-29T13:25:36;100469.69;;;-0.24;100.00
50867;BME280;36839;51.946;21.002;2023-01-29T13:28:18;100474.16;;;-0.28;100.00
50867;BME280;36839;51.946;21.002;2023-01-29T13:31:29;100476.13;;;-0.31;100.00
50867;BME280;36839;51.946;21.002;2023-01-29T13:34:15;100475.30;;;-0.41;100.00
50867;BME280;36839;51.946;21.002;2023-01-29T13:36:53;100475.31;;;-0.48;100.00
50867;BME280;36839;51.946;21.002;2023-01-29T13:39:35;100478.12;;;-0.51;100.00
50867;BME280;36839;51.946;21.002;2023-01-29T13:42:18;100474.31;;;-0.52;100.00
50867;BME280;36839;51.946;21.002;2023-01-29T13:45:00;100479.18;;;-0.55;100.00
50867;BME280;36839;51.946;21.002;2023-01-29T13:47:31;100483.27;;;-0.57;100.00
50867;BME280;36839;51.946;21.002;2023-01-29T13:52:36;100483.48;;;-0.68;100.00
50867;BME280;36839;51.946;21.002;2023-01-29T13:55:23;100475.75;;;-0.69;100.00
50867;BME280;36839;51.946;21.002;2023-01-29T13:58:04;100471.23;;;-0.70;100.00
50867;BME280;36839;51.946;21.002;2023-01-29T14:06:01;100456.74;;;-0.78;100.00
50867;BME280;36839;51.946;21.002;2023-01-29T14:08:43;100451.92;;;-0.87;100.00
50867;BME280;36839;51.946;21.002;2023-01-29T14:13:54;100449.54;;;-0.93;100.00
50867;BME280;36839;51.946;21.002;2023-01-29T14:16:32;100440.74;;;-0.95;100.00
50867;BME280;36839;51.946;21.002;2023-01-29T14:19:01;100445.73;;;-0.99;100.00
50867;BME280;36839;51.946;21.002;2023-01-29T14:21:35;100453.05;;;-1.02;100.00
50867;BME280;36839;51.946;21.002;2023-01-29T14:24:21;100458.06;;;-1.01;100.00
50867;BME280;36839;51.946;21.002;2023-01-29T14:26:54;100464.96;;;-1.03;100.00
50867;BME280;36839;51.946;21.002;2023-01-29T14:29:34;100468.36;;;-1.06;100.00
50867;BME280;36839;51.946;21.002;2023-01-29T14:32:26;100488.00;;;-1.01;100.00
50867;BME280;36839;51.946;21.002;2023-01-29T14:35:20;100490.17;;;-0.97;100.00
50867;BME280;36839;51.946;21.002;2023-01-29T14:37:53;100494.08;;;-1.02;100.00
50867;BME280;36839;51.946;21.002;2023-01-29T14:40:23;100488.34;;;-1.04;100.00
50867;BME280;36839;51.946;21.002;2023-01-29T14:43:08;100491.52;;;-1.05;100.00
50867;BME280;36839;51.946;21.002;2023-01-29T14:45:54;100478.98;;;-1.07;100.00
50867;BME280;36839;51.946;21.002;2023-01-29T14:48:36;100475.02;;;-1.07;100.00
50867;BME280;36839;51.946;21.002;2023-01-29T14:51:14;100470.08;;;-1.09;100.00
50867;BME280;36839;51.946;21.002;2023-01-29T14:56:40;100456.67;;;-1.12;100.00
50867;BME280;36839;51.946;21.002;2023-01-29T14:59:20;100449.55;;;-1.11;100.00
50867;BME280;36839;51.946;21.002;2023-01-29T15:01:52;100451.30;;;-1.11;100.00
50867;BME280;36839;51.946;21.002;2023-01-29T15:04:48;100450.38;;;-1.14;100.00